Terminal Aerodrome Forecast
Issued by NWS

Home | Current Version | Previous Version | Graphics & Text | Print | Product List | Glossary On
Versions: 1 2 3 4 5 6 7 8 9 10 11 12 13 14 15 16 17 18 19 20 21 22 23 24 25
515
FTUS43 KABR 182337
TAFMBG
TAF
KMBG 182337Z 1900/1924 08005KT P6SM BKN250
     FM190300 11008KT P6SM BKN200
     FM190700 13012KT P6SM SCT080 BKN120
     FM190900 13013KT P6SM VCSH BKN060 OVC090 WS020/19035KT
     FM191200 15014G21KT P6SM SCT090 BKN200 WS020/19045KT
     FM191400 16020G29KT P6SM BKN200
     FM192200 22014G21KT P6SM VCTS BKN050CB BKN140=

USA.gov is the U.S. government's official web portal to all federal, state and local government web resources and services.